sensor_id;sensor_type;location;lat;lon;timestamp;pressure;altitude;pressure_sealevel;temperature;humidity
65054;BME280;51639;47.828;35.038;2023-08-17T00:05:28;100452.88;;;28.71;93.25
65054;BME280;51639;47.828;35.038;2023-08-17T00:20:30;100463.16;;;28.49;93.69
65054;BME280;51639;47.828;35.038;2023-08-17T00:35:32;100450.59;;;28.43;96.36
65054;BME280;51639;47.828;35.038;2023-08-17T00:50:35;100451.00;;;28.34;98.36
65054;BME280;51639;47.828;35.038;2023-08-17T01:05:38;100434.09;;;27.94;100.00
65054;BME280;51639;47.828;35.038;2023-08-17T01:20:40;100430.38;;;27.73;100.00
65054;BME280;51639;47.828;35.038;2023-08-17T01:35:51;100428.72;;;27.64;100.00
65054;BME280;51639;47.828;35.038;2023-08-17T01:50:55;100413.66;;;27.73;100.00
65054;BME280;51639;47.828;35.038;2023-08-17T02:05:59;100401.94;;;27.61;100.00
65054;BME280;51639;47.828;35.038;2023-08-17T02:21:01;100417.13;;;27.79;100.00
65054;BME280;51639;47.828;35.038;2023-08-17T02:36:03;100424.81;;;27.73;100.00
65054;BME280;51639;47.828;35.038;2023-08-17T02:51:05;100438.59;;;27.84;100.00
65054;BME280;51639;47.828;35.038;2023-08-17T03:06:09;100443.41;;;27.83;98.90
65054;BME280;51639;47.828;35.038;2023-08-17T03:21:11;100445.91;;;27.87;100.00
65054;BME280;51639;47.828;35.038;2023-08-17T03:36:13;100454.75;;;28.04;98.79
65054;BME280;51639;47.828;35.038;2023-08-17T03:51:15;100460.75;;;28.27;98.73
65054;BME280;51639;47.828;35.038;2023-08-17T04:06:17;100463.13;;;28.36;98.54
65054;BME280;51639;47.828;35.038;2023-08-17T04:21:19;100488.34;;;28.76;95.46
65054;BME280;51639;47.828;35.038;2023-08-17T04:36:22;100482.88;;;29.10;92.15
65054;BME280;51639;47.828;35.038;2023-08-17T04:51:24;100492.28;;;29.60;90.55
65054;BME280;51639;47.828;35.038;2023-08-17T05:06:28;100504.53;;;30.25;86.95
65054;BME280;51639;47.828;35.038;2023-08-17T05:21:30;100509.97;;;30.64;83.66
65054;BME280;51639;47.828;35.038;2023-08-17T05:36:32;100507.44;;;31.38;80.57
65054;BME280;51639;47.828;35.038;2023-08-17T05:51:34;100516.09;;;32.14;75.93
65054;BME280;51639;47.828;35.038;2023-08-17T06:06:36;100513.31;;;32.98;72.29
65054;BME280;51639;47.828;35.038;2023-08-17T06:21:38;100521.75;;;32.98;64.27
65054;BME280;51639;47.828;35.038;2023-08-17T06:36:40;100534.63;;;33.72;59.87
65054;BME280;51639;47.828;35.038;2023-08-17T06:51:42;100537.16;;;34.25;56.23
65054;BME280;51639;47.828;35.038;2023-08-17T07:06:44;100524.78;;;34.70;54.68
65054;BME280;51639;47.828;35.038;2023-08-17T07:21:46;100528.38;;;35.22;54.43
65054;BME280;51639;47.828;35.038;2023-08-17T07:36:50;100529.56;;;36.35;50.82
65054;BME280;51639;47.828;35.038;2023-08-17T07:51:52;100525.53;;;36.74;49.48
65054;BME280;51639;47.828;35.038;2023-08-17T08:06:54;100513.91;;;37.09;48.35
65054;BME280;51639;47.828;35.038;2023-08-17T08:21:56;100513.41;;;37.80;45.67
65054;BME280;51639;47.828;35.038;2023-08-17T08:36:58;100517.59;;;38.50;44.24
65054;BME280;51639;47.828;35.038;2023-08-17T08:52:15;100511.44;;;37.92;43.41
65054;BME280;51639;47.828;35.038;2023-08-17T09:07:19;100505.00;;;38.63;44.04
65054;BME280;51639;47.828;35.038;2023-08-17T09:37:54;100487.03;;;39.13;41.81
65054;BME280;51639;47.828;35.038;2023-08-17T09:52:56;100481.81;;;39.42;39.81
65054;BME280;51639;47.828;35.038;2023-08-17T10:07:59;100485.38;;;40.11;40.61
65054;BME280;51639;47.828;35.038;2023-08-17T10:23:22;100486.84;;;40.23;40.19
65054;BME280;51639;47.828;35.038;2023-08-17T10:38:25;100487.44;;;39.19;42.20
65054;BME280;51639;47.828;35.038;2023-08-17T10:53:34;100475.56;;;40.98;39.00
65054;BME280;51639;47.828;35.038;2023-08-17T11:08:51;100473.16;;;40.32;39.55
65054;BME280;51639;47.828;35.038;2023-08-17T11:23:58;100467.94;;;38.71;41.45
65054;BME280;51639;47.828;35.038;2023-08-17T11:39:00;100454.59;;;38.52;44.20
65054;BME280;51639;47.828;35.038;2023-08-17T11:54:02;100459.69;;;37.41;44.29
65054;BME280;51639;47.828;35.038;2023-08-17T12:09:06;100449.00;;;36.16;46.28
65054;BME280;51639;47.828;35.038;2023-08-17T12:24:09;100452.53;;;36.63;46.76
65054;BME280;51639;47.828;35.038;2023-08-17T12:39:16;100447.16;;;36.48;45.58
65054;BME280;51639;47.828;35.038;2023-08-17T12:54:18;100432.47;;;36.03;45.74
65054;BME280;51639;47.828;35.038;2023-08-17T13:09:20;100435.19;;;36.20;45.38
65054;BME280;51639;47.828;35.038;2023-08-17T13:24:23;100430.38;;;35.40;45.32
65054;BME280;51639;47.828;35.038;2023-08-17T13:39:25;100443.47;;;35.45;45.18
65054;BME280;51639;47.828;35.038;2023-08-17T13:54:29;100432.34;;;35.47;45.07
65054;BME280;51639;47.828;35.038;2023-08-17T14:09:31;100450.06;;;34.96;46.46
65054;BME280;51639;47.828;35.038;2023-08-17T14:24:33;100436.13;;;34.98;45.89
65054;BME280;51639;47.828;35.038;2023-08-17T14:39:36;100437.06;;;35.18;45.50
65054;BME280;51639;47.828;35.038;2023-08-17T14:54:38;100439.69;;;34.64;46.70
65054;BME280;51639;47.828;35.038;2023-08-17T15:09:44;100433.06;;;35.04;45.58
65054;BME280;51639;47.828;35.038;2023-08-17T15:24:46;100429.56;;;34.44;46.92
65054;BME280;51639;47.828;35.038;2023-08-17T15:39:50;100431.66;;;34.43;47.26
65054;BME280;51639;47.828;35.038;2023-08-17T15:54:53;100440.22;;;34.03;48.58
65054;BME280;51639;47.828;35.038;2023-08-17T16:09:58;100441.31;;;33.83;49.38
65054;BME280;51639;47.828;35.038;2023-08-17T16:25:00;100445.63;;;33.84;49.62
65054;BME280;51639;47.828;35.038;2023-08-17T16:40:02;100452.25;;;33.31;51.32
65054;BME280;51639;47.828;35.038;2023-08-17T16:55:06;100462.25;;;33.17;51.28
65054;BME280;51639;47.828;35.038;2023-08-17T17:10:09;100474.34;;;32.87;52.56
65054;BME280;51639;47.828;35.038;2023-08-17T17:43:35;100499.25;;;32.60;54.70
65054;BME280;51639;47.828;35.038;2023-08-17T17:58:37;100499.06;;;32.20;55.30
65054;BME280;51639;47.828;35.038;2023-08-17T18:13:39;100484.41;;;31.91;56.63
65054;BME280;51639;47.828;35.038;2023-08-17T18:28:41;100497.41;;;31.58;57.78
65054;BME280;51639;47.828;35.038;2023-08-17T18:43:43;100490.03;;;31.32;59.50
65054;BME280;51639;47.828;35.038;2023-08-17T18:58:48;100496.88;;;31.16;62.02
65054;BME280;51639;47.828;35.038;2023-08-17T19:13:51;100491.47;;;30.97;63.68
65054;BME280;51639;47.828;35.038;2023-08-17T19:28:53;100501.84;;;30.81;65.84
65054;BME280;51639;47.828;35.038;2023-08-17T19:43:55;100504.47;;;30.79;65.88
65054;BME280;51639;47.828;35.038;2023-08-17T19:58:57;100505.16;;;30.72;65.17
65054;BME280;51639;47.828;35.038;2023-08-17T20:13:59;100513.31;;;30.63;65.61
65054;BME280;51639;47.828;35.038;2023-08-17T20:29:01;100520.47;;;30.30;66.13
65054;BME280;51639;47.828;35.038;2023-08-17T20:44:03;100519.66;;;30.22;66.33
65054;BME280;51639;47.828;35.038;2023-08-17T20:59:05;100531.97;;;30.05;65.93
65054;BME280;51639;47.828;35.038;2023-08-17T21:14:08;100537.50;;;29.98;66.06
65054;BME280;51639;47.828;35.038;2023-08-17T21:29:10;100532.72;;;29.72;67.16
65054;BME280;51639;47.828;35.038;2023-08-17T21:44:11;100526.06;;;29.62;68.01
65054;BME280;51639;47.828;35.038;2023-08-17T21:59:13;100527.56;;;29.63;67.00
65054;BME280;51639;47.828;35.038;2023-08-17T22:14:16;100526.94;;;29.57;65.56
65054;BME280;51639;47.828;35.038;2023-08-17T22:29:18;100528.47;;;29.44;64.81
65054;BME280;51639;47.828;35.038;2023-08-17T22:44:20;100535.78;;;29.47;63.70
65054;BME280;51639;47.828;35.038;2023-08-17T22:59:22;100536.00;;;29.49;63.15
65054;BME280;51639;47.828;35.038;2023-08-17T23:14:24;100545.22;;;29.18;65.92
65054;BME280;51639;47.828;35.038;2023-08-17T23:29:26;100564.13;;;28.85;66.50
65054;BME280;51639;47.828;35.038;2023-08-17T23:44:28;100561.97;;;28.92;66.89
65054;BME280;51639;47.828;35.038;2023-08-17T23:59:31;100562.19;;;28.80;66.93
